createdAt,value
2019-05-19T00:00:48.501Z,31.90
2019-05-19T00:01:48.498Z,30.90
2019-05-19T00:02:48.519Z,30.60
2019-05-19T00:03:48.490Z,31.20
2019-05-19T00:04:48.500Z,32.10
2019-05-19T00:05:48.484Z,32.10
2019-05-19T00:06:48.476Z,32.00
2019-05-19T00:07:48.471Z,32.00
2019-05-19T00:08:48.463Z,33.50
2019-05-19T00:09:48.463Z,33.60
2019-05-19T00:10:48.462Z,33.10
2019-05-19T00:11:48.458Z,34.60
2019-05-19T00:12:48.451Z,33.40
2019-05-19T00:13:48.446Z,34.10
2019-05-19T00:14:48.440Z,37.10
2019-05-19T00:15:48.433Z,34.40
2019-05-19T00:16:48.431Z,37.70
2019-05-19T00:17:48.427Z,36.70
2019-05-19T00:18:48.424Z,37.40
2019-05-19T00:19:48.414Z,37.40
2019-05-19T00:20:48.406Z,37.90
2019-05-19T00:21:48.399Z,39.50
2019-05-19T00:22:48.397Z,39.10
2019-05-19T00:23:48.390Z,40.50
2019-05-19T00:24:48.391Z,41.20
2019-05-19T00:25:48.391Z,42.00
2019-05-19T00:26:48.383Z,40.60
2019-05-19T00:27:48.386Z,41.70
2019-05-19T00:28:48.370Z,41.80
2019-05-19T00:29:48.365Z,43.00
2019-05-19T00:30:48.363Z,42.10
2019-05-19T00:31:48.360Z,40.50
2019-05-19T00:32:48.363Z,39.60
2019-05-19T00:33:48.349Z,42.60
2019-05-19T00:34:48.335Z,39.40
2019-05-19T00:35:48.332Z,44.30
2019-05-19T00:36:48.330Z,45.20
2019-05-19T00:37:48.326Z,46.90
2019-05-19T00:38:48.324Z,43.20
2019-05-19T00:39:48.315Z,44.00
2019-05-19T00:40:48.305Z,43.80
2019-05-19T00:41:48.302Z,45.40
2019-05-19T00:42:48.297Z,44.60
2019-05-19T00:43:48.293Z,46.50
2019-05-19T00:44:48.293Z,42.60
2019-05-19T00:45:48.288Z,43.90
2019-05-19T00:46:48.284Z,54.50
2019-05-19T00:47:48.274Z,45.70
2019-05-19T00:48:48.274Z,45.00
2019-05-19T00:49:48.268Z,44.40
2019-05-19T00:50:48.260Z,46.10
2019-05-19T00:51:48.297Z,48.30
2019-05-19T00:52:48.246Z,45.60
2019-05-19T00:53:48.243Z,42.90
2019-05-19T00:54:48.239Z,42.30
2019-05-19T00:55:48.232Z,44.50
2019-05-19T00:56:48.237Z,42.50
2019-05-19T00:57:48.227Z,44.90
2019-05-19T00:58:48.225Z,48.00
2019-05-19T00:59:48.217Z,45.80
2019-05-19T01:00:48.209Z,45.00
2019-05-19T01:01:48.203Z,43.00
2019-05-19T01:02:48.219Z,51.50
2019-05-19T01:03:48.206Z,46.20
2019-05-19T01:04:48.188Z,48.80
2019-05-19T01:05:48.194Z,45.10
2019-05-19T01:06:48.176Z,42.80
2019-05-19T01:07:48.171Z,41.90
2019-05-19T01:08:48.170Z,42.30
2019-05-19T01:09:48.164Z,41.30
2019-05-19T01:10:48.162Z,41.30
2019-05-19T01:11:48.154Z,41.40
2019-05-19T01:12:48.146Z,41.30
2019-05-19T01:13:48.142Z,39.90
2019-05-19T01:14:48.134Z,40.40
2019-05-19T01:15:48.128Z,40.30
2019-05-19T01:16:48.132Z,42.00
2019-05-19T01:17:48.122Z,39.90
2019-05-19T01:18:48.114Z,41.20
2019-05-19T01:19:55.558Z,40.00
2019-05-19T01:20:48.107Z,42.00
2019-05-19T01:21:48.104Z,41.80
2019-05-19T01:22:48.105Z,38.90
2019-05-19T01:23:48.093Z,45.90
2019-05-19T01:24:48.083Z,41.90
2019-05-19T01:25:48.080Z,44.30
2019-05-19T01:26:48.073Z,41.80
2019-05-19T01:27:48.068Z,40.40
2019-05-19T01:28:48.067Z,40.10
2019-05-19T01:29:48.062Z,43.10
2019-05-19T01:30:48.053Z,38.90
2019-05-19T01:31:48.050Z,42.50
2019-05-19T01:32:48.038Z,41.70
2019-05-19T01:33:48.068Z,41.50
2019-05-19T01:34:48.033Z,39.60
2019-05-19T01:35:48.030Z,44.50
2019-05-19T01:36:48.018Z,39.90
2019-05-19T01:37:48.015Z,39.20
2019-05-19T01:38:48.013Z,41.00
2019-05-19T01:39:48.005Z,39.20
2019-05-19T01:40:48.004Z,40.40
2019-05-19T01:41:48.051Z,39.80
2019-05-19T01:42:47.993Z,41.80
2019-05-19T01:43:47.992Z,39.30
2019-05-19T01:44:47.978Z,49.20
2019-05-19T01:45:47.974Z,52.00
2019-05-19T01:46:47.967Z,50.10
2019-05-19T01:47:47.959Z,48.30
2019-05-19T01:48:47.959Z,45.50
2019-05-19T01:49:47.954Z,43.60
2019-05-19T01:50:47.944Z,50.50
2019-05-19T01:51:47.939Z,43.70
2019-05-19T01:52:47.937Z,45.50
2019-05-19T01:53:47.931Z,42.50
2019-05-19T01:54:47.930Z,42.20
2019-05-19T01:55:47.922Z,42.00
2019-05-19T01:56:47.920Z,43.50
2019-05-19T01:57:47.912Z,42.90
2019-05-19T01:58:47.904Z,43.30
2019-05-19T01:59:47.900Z,42.30
2019-05-19T02:00:47.897Z,43.30
2019-05-19T02:01:47.894Z,43.70
2019-05-19T02:02:47.887Z,43.30
2019-05-19T02:03:47.879Z,41.50
2019-05-19T02:04:47.868Z,42.10
2019-05-19T02:05:47.863Z,41.20
2019-05-19T02:06:47.862Z,44.90
2019-05-19T02:07:47.855Z,43.60
2019-05-19T02:08:47.845Z,45.80
2019-05-19T02:09:47.842Z,43.20
2019-05-19T02:10:47.839Z,48.20
2019-05-19T02:11:47.831Z,46.10
2019-05-19T02:12:47.830Z,47.40
2019-05-19T02:13:47.823Z,43.90
2019-05-19T02:14:47.817Z,44.70
2019-05-19T02:15:47.813Z,44.10
2019-05-19T02:16:47.802Z,43.00
2019-05-19T02:17:47.795Z,42.30
2019-05-19T02:18:47.795Z,47.80
2019-05-19T02:19:47.787Z,51.90
2019-05-19T02:20:47.797Z,50.70
2019-05-19T02:21:47.782Z,50.20
2019-05-19T02:22:47.773Z,46.40
2019-05-19T02:23:47.766Z,44.70
2019-05-19T02:24:47.766Z,45.70
2019-05-19T02:25:47.770Z,46.60
2019-05-19T02:26:47.753Z,45.40
2019-05-19T02:27:47.747Z,46.60
2019-05-19T02:28:47.734Z,52.20
2019-05-19T02:29:47.731Z,52.50
2019-05-19T02:30:47.729Z,51.60
2019-05-19T02:31:47.719Z,50.30
2019-05-19T02:32:47.719Z,52.40
2019-05-19T02:33:47.714Z,46.40
2019-05-19T02:34:47.711Z,44.20
2019-05-19T02:35:47.704Z,50.20
2019-05-19T02:36:47.696Z,43.00
2019-05-19T02:37:47.689Z,42.20
2019-05-19T02:38:47.686Z,45.50
2019-05-19T02:39:47.683Z,46.30
2019-05-19T02:40:47.671Z,48.60
2019-05-19T02:41:47.666Z,56.30
2019-05-19T02:42:47.659Z,44.40
2019-05-19T02:43:47.653Z,44.70
2019-05-19T02:44:47.657Z,47.60
2019-05-19T02:45:47.646Z,46.90
2019-05-19T02:46:47.640Z,51.80
2019-05-19T02:47:47.633Z,43.50
2019-05-19T02:48:47.626Z,47.00
2019-05-19T02:49:47.619Z,47.30
2019-05-19T02:50:52.352Z,47.60
2019-05-19T02:51:47.611Z,45.20
2019-05-19T02:52:47.610Z,45.50
2019-05-19T02:53:47.604Z,48.30
2019-05-19T02:54:47.594Z,45.30
2019-05-19T02:55:47.588Z,49.60
2019-05-19T02:56:47.592Z,45.90
2019-05-19T02:57:47.581Z,47.40
2019-05-19T02:58:47.574Z,51.40
2019-05-19T02:59:47.567Z,49.30
2019-05-19T03:00:47.557Z,50.60
2019-05-19T03:01:47.552Z,57.10
2019-05-19T03:02:47.558Z,53.50
2019-05-19T03:03:47.538Z,52.80
2019-05-19T03:04:47.538Z,52.20
2019-05-19T03:05:47.538Z,48.50
2019-05-19T03:06:47.532Z,53.30
2019-05-19T03:07:47.525Z,54.30
2019-05-19T03:08:47.514Z,48.60
2019-05-19T03:09:47.509Z,50.00
2019-05-19T03:10:47.508Z,57.00
2019-05-19T03:11:47.500Z,47.40
2019-05-19T03:12:47.490Z,54.20
2019-05-19T03:13:47.486Z,48.60
2019-05-19T03:14:47.478Z,49.60
2019-05-19T03:15:47.469Z,47.90
2019-05-19T03:16:47.469Z,52.90
2019-05-19T03:17:47.467Z,48.80
2019-05-19T03:18:47.459Z,49.80
2019-05-19T03:19:47.453Z,46.40
2019-05-19T03:20:47.444Z,51.00
2019-05-19T03:21:47.436Z,53.00
2019-05-19T03:22:47.434Z,48.50
2019-05-19T03:23:47.427Z,54.40
2019-05-19T03:24:47.427Z,48.80
2019-05-19T03:25:47.423Z,48.50
2019-05-19T03:26:47.412Z,51.50
2019-05-19T03:27:47.404Z,48.20
2019-05-19T03:28:47.405Z,48.10
2019-05-19T03:29:47.399Z,50.60
2019-05-19T03:30:47.390Z,45.70
2019-05-19T03:31:47.385Z,45.80
2019-05-19T03:32:47.374Z,46.10
2019-05-19T03:33:47.366Z,43.80
2019-05-19T03:34:47.371Z,49.60
2019-05-19T03:35:47.355Z,42.70
2019-05-19T03:36:47.354Z,40.30
2019-05-19T03:37:47.364Z,41.60
2019-05-19T03:38:47.392Z,41.80
2019-05-19T03:39:47.337Z,44.00
2019-05-19T03:40:47.329Z,49.30
2019-05-19T03:41:47.322Z,45.30
2019-05-19T03:42:47.322Z,45.10
2019-05-19T03:43:47.314Z,51.40
2019-05-19T03:44:47.303Z,43.90
2019-05-19T03:45:47.301Z,47.30
2019-05-19T03:46:47.290Z,46.80
2019-05-19T03:47:47.293Z,42.00
2019-05-19T03:48:47.292Z,47.70
2019-05-19T03:49:47.276Z,49.00
2019-05-19T03:50:47.274Z,51.70
2019-05-19T03:51:47.265Z,48.80
2019-05-19T03:52:47.256Z,51.60
2019-05-19T03:53:47.248Z,55.60
2019-05-19T03:54:47.252Z,49.40
2019-05-19T03:55:47.240Z,47.20
2019-05-19T03:56:47.238Z,42.00
2019-05-19T03:57:47.230Z,43.00
2019-05-19T03:58:47.225Z,44.90
2019-05-19T03:59:47.219Z,41.90
2019-05-19T04:00:47.218Z,41.00
2019-05-19T04:01:47.210Z,43.90
2019-05-19T04:02:47.205Z,49.10
2019-05-19T04:03:47.201Z,50.40
2019-05-19T04:04:47.195Z,51.70
2019-05-19T04:05:47.178Z,52.60
2019-05-19T04:06:47.172Z,48.50
2019-05-19T04:07:47.165Z,49.90
2019-05-19T04:08:47.164Z,55.20
2019-05-19T04:09:47.159Z,46.00
2019-05-19T04:10:47.155Z,49.50
2019-05-19T04:11:47.168Z,50.30
2019-05-19T04:12:47.140Z,44.90
2019-05-19T04:13:47.142Z,49.70
2019-05-19T04:14:47.134Z,51.80
2019-05-19T04:15:47.128Z,48.20
2019-05-19T04:16:47.118Z,43.40
2019-05-19T04:17:47.113Z,43.70
2019-05-19T04:18:47.103Z,47.80
2019-05-19T04:19:47.097Z,50.30
2019-05-19T04:20:47.095Z,45.00
2019-05-19T04:21:49.309Z,46.30
2019-05-19T04:22:47.087Z,47.20
2019-05-19T04:23:47.085Z,40.60
2019-05-19T04:24:47.074Z,44.40
2019-05-19T04:25:47.066Z,43.40
2019-05-19T04:26:47.060Z,41.50
2019-05-19T04:27:47.052Z,62.90
2019-05-19T04:28:47.049Z,45.30
2019-05-19T04:29:47.044Z,39.40
2019-05-19T04:30:47.040Z,42.00
2019-05-19T04:31:47.028Z,45.80
2019-05-19T04:32:47.029Z,53.30
2019-05-19T04:33:47.022Z,52.20
2019-05-19T04:34:47.022Z,50.70
2019-05-19T04:35:47.015Z,54.60
2019-05-19T04:36:47.004Z,47.30
2019-05-19T04:37:46.999Z,43.00
2019-05-19T04:38:46.992Z,45.30
2019-05-19T04:39:46.988Z,49.40
2019-05-19T04:40:46.986Z,49.00
2019-05-19T04:41:46.984Z,47.40
2019-05-19T04:42:46.977Z,43.80
2019-05-19T04:43:46.968Z,44.10
2019-05-19T04:44:46.960Z,44.60
2019-05-19T04:45:46.956Z,43.70
2019-05-19T04:46:46.959Z,47.30
2019-05-19T04:47:46.947Z,43.20
2019-05-19T04:48:46.941Z,50.00
2019-05-19T04:49:46.934Z,42.80
2019-05-19T04:50:46.933Z,42.90
2019-05-19T04:51:46.929Z,42.90
2019-05-19T04:52:46.927Z,41.80
2019-05-19T04:53:46.921Z,42.30
2019-05-19T04:54:46.928Z,43.50
2019-05-19T04:55:46.914Z,43.20
2019-05-19T04:56:46.905Z,39.70
2019-05-19T04:57:46.901Z,40.40
2019-05-19T04:58:46.895Z,39.90
2019-05-19T04:59:46.890Z,43.50
2019-05-19T05:00:46.890Z,45.00
2019-05-19T05:01:46.885Z,42.80
2019-05-19T05:02:46.878Z,42.90
2019-05-19T05:03:46.873Z,39.20
2019-05-19T05:04:46.872Z,38.30
2019-05-19T05:05:46.870Z,40.10
2019-05-19T05:06:46.868Z,40.10
2019-05-19T05:07:46.862Z,39.20
2019-05-19T05:08:46.858Z,39.80
2019-05-19T05:09:46.850Z,38.10
2019-05-19T05:10:46.845Z,40.00
2019-05-19T05:11:46.844Z,41.70
2019-05-19T05:12:46.842Z,44.00
2019-05-19T05:13:46.838Z,37.70
2019-05-19T05:14:46.832Z,39.50
2019-05-19T05:15:46.828Z,38.60
2019-05-19T05:16:46.820Z,40.70
2019-05-19T05:17:46.819Z,38.70
2019-05-19T05:18:47.971Z,37.40
2019-05-19T05:19:46.813Z,39.30
2019-05-19T05:20:46.807Z,36.90
2019-05-19T05:21:46.803Z,37.10
2019-05-19T05:22:46.802Z,37.20
2019-05-19T05:23:46.799Z,38.30
2019-05-19T05:24:46.800Z,36.10
2019-05-19T05:25:46.797Z,36.60
2019-05-19T05:26:46.791Z,36.00
2019-05-19T05:27:46.788Z,35.90
2019-05-19T05:28:46.781Z,35.30
2019-05-19T05:29:46.782Z,34.80
2019-05-19T05:30:46.780Z,36.20
2019-05-19T05:31:46.776Z,32.90
2019-05-19T05:32:46.779Z,32.40
2019-05-19T05:33:46.778Z,32.20
2019-05-19T05:34:46.771Z,33.10
2019-05-19T05:35:46.770Z,32.90
2019-05-19T05:36:46.770Z,34.00
2019-05-19T05:37:46.770Z,33.70
2019-05-19T05:38:46.766Z,35.40
2019-05-19T05:39:46.762Z,34.90
2019-05-19T05:40:46.756Z,33.80
2019-05-19T05:41:46.755Z,33.40
2019-05-19T05:42:46.754Z,32.90
2019-05-19T05:43:46.750Z,34.10
2019-05-19T05:44:46.754Z,33.50
2019-05-19T05:45:46.753Z,34.00
2019-05-19T05:46:46.754Z,33.60
2019-05-19T05:47:46.753Z,32.90
2019-05-19T05:48:46.748Z,32.90
2019-05-19T05:49:50.140Z,32.40
2019-05-19T05:50:46.751Z,34.10
2019-05-19T05:51:46.748Z,33.30
2019-05-19T05:52:46.744Z,32.50
2019-05-19T05:53:46.745Z,32.40
2019-05-19T05:54:46.745Z,30.80
2019-05-19T05:55:46.744Z,30.60
2019-05-19T05:56:46.746Z,31.10
2019-05-19T05:57:46.745Z,30.10
2019-05-19T05:58:46.747Z,29.90
2019-05-19T05:59:46.746Z,28.90
2019-05-19T06:00:46.743Z,30.10
2019-05-19T06:01:46.743Z,30.40
2019-05-19T06:02:46.750Z,28.80
2019-05-19T06:03:46.750Z,28.70
2019-05-19T06:04:46.752Z,29.50
2019-05-19T06:05:46.761Z,29.40
2019-05-19T06:06:46.754Z,29.10
2019-05-19T06:07:46.753Z,29.80
2019-05-19T06:08:46.760Z,29.60
2019-05-19T06:09:46.761Z,29.30
2019-05-19T06:10:46.767Z,28.90
2019-05-19T06:11:46.762Z,28.30
2019-05-19T06:12:46.761Z,28.20
2019-05-19T06:13:49.377Z,29.90
2019-05-19T06:14:46.826Z,29.30
2019-05-19T06:15:46.768Z,30.50
2019-05-19T06:16:46.776Z,29.40
2019-05-19T06:17:46.780Z,29.50
2019-05-19T06:18:46.785Z,27.90
2019-05-19T06:19:46.790Z,28.10
2019-05-19T06:20:46.791Z,29.10
2019-05-19T06:21:46.791Z,28.50
2019-05-19T06:22:55.844Z,27.90
2019-05-19T06:23:46.797Z,28.60
2019-05-19T06:24:46.798Z,30.00
2019-05-19T06:25:46.813Z,28.60
2019-05-19T06:26:46.802Z,27.60
2019-05-19T06:27:46.806Z,28.40
2019-05-19T06:28:46.812Z,29.60
2019-05-19T06:29:46.815Z,28.50
2019-05-19T06:30:46.823Z,28.30
2019-05-19T06:31:46.824Z,27.60
2019-05-19T06:32:46.826Z,27.60
2019-05-19T06:33:46.831Z,28.40
2019-05-19T06:34:46.836Z,28.90
2019-05-19T06:35:46.834Z,28.40
2019-05-19T06:36:46.844Z,29.60
2019-05-19T06:37:46.852Z,28.60
2019-05-19T06:38:46.849Z,27.30
2019-05-19T06:39:46.850Z,28.70
2019-05-19T06:40:46.857Z,28.40
2019-05-19T06:41:46.861Z,29.70
2019-05-19T06:42:46.883Z,28.70
2019-05-19T06:43:46.869Z,27.90
2019-05-19T06:44:46.881Z,29.40
2019-05-19T06:45:46.879Z,26.70
2019-05-19T06:46:46.881Z,27.60
2019-05-19T06:47:46.883Z,27.90
2019-05-19T06:48:46.893Z,27.50
2019-05-19T06:49:46.898Z,27.70
2019-05-19T06:50:46.899Z,27.40
2019-05-19T06:51:46.904Z,27.00
2019-05-19T06:52:46.905Z,27.00
2019-05-19T06:53:46.911Z,28.00
2019-05-19T06:54:46.923Z,27.90
2019-05-19T06:55:46.926Z,28.80
2019-05-19T06:56:46.926Z,28.30
2019-05-19T06:57:46.932Z,28.60
2019-05-19T06:58:46.942Z,28.20
2019-05-19T06:59:46.948Z,27.70
2019-05-19T07:00:46.957Z,28.90
2019-05-19T07:01:46.964Z,28.40
2019-05-19T07:02:46.969Z,28.40
2019-05-19T07:03:46.972Z,28.40
2019-05-19T07:04:46.976Z,29.70
2019-05-19T07:05:46.980Z,29.10
2019-05-19T07:06:47.004Z,27.80
2019-05-19T07:07:46.989Z,28.50
2019-05-19T07:08:47.000Z,27.40
2019-05-19T07:09:57.997Z,29.20
2019-05-19T07:10:47.003Z,29.50
2019-05-19T07:11:47.011Z,29.80
2019-05-19T07:12:47.017Z,29.90
2019-05-19T07:13:47.023Z,27.60
2019-05-19T07:14:47.029Z,29.50
2019-05-19T07:15:47.042Z,28.20
2019-05-19T07:16:47.037Z,29.40
2019-05-19T07:17:47.038Z,30.40
2019-05-19T07:18:47.043Z,28.70
2019-05-19T07:19:47.045Z,30.00
2019-05-19T07:20:47.053Z,29.80
2019-05-19T07:21:47.056Z,29.20
2019-05-19T07:22:47.060Z,29.80
2019-05-19T07:23:47.061Z,28.70
2019-05-19T07:24:47.062Z,28.70
2019-05-19T07:25:47.065Z,27.90
2019-05-19T07:26:47.072Z,27.30
2019-05-19T07:27:47.077Z,28.10
2019-05-19T07:28:47.083Z,28.30
2019-05-19T07:29:47.081Z,27.70
2019-05-19T07:30:47.089Z,27.90
2019-05-19T07:31:47.096Z,28.60
2019-05-19T07:32:47.108Z,28.60
2019-05-19T07:33:47.105Z,28.00
2019-05-19T07:34:47.103Z,27.40
2019-05-19T07:35:47.109Z,27.90
2019-05-19T07:36:47.120Z,28.10
2019-05-19T07:37:47.124Z,27.90
2019-05-19T07:38:47.130Z,27.60
2019-05-19T07:39:47.136Z,26.40
2019-05-19T07:40:47.138Z,26.90
2019-05-19T07:41:47.144Z,27.80
2019-05-19T07:42:47.153Z,26.80
2019-05-19T07:43:47.158Z,27.60
2019-05-19T07:44:47.226Z,27.40
2019-05-19T07:45:47.166Z,27.50
2019-05-19T07:46:47.171Z,27.30
2019-05-19T07:47:47.174Z,25.40
2019-05-19T07:48:47.186Z,27.60
2019-05-19T07:49:47.189Z,27.90
2019-05-19T07:50:47.200Z,25.30
2019-05-19T07:51:47.201Z,24.70
2019-05-19T07:52:47.210Z,24.80
2019-05-19T07:53:47.207Z,24.60
2019-05-19T07:54:47.216Z,26.40
2019-05-19T07:55:47.224Z,25.70
2019-05-19T07:56:47.235Z,25.40
2019-05-19T07:57:47.241Z,27.40
2019-05-19T07:58:47.237Z,25.80
2019-05-19T07:59:47.240Z,26.50
2019-05-19T08:00:47.249Z,25.80
2019-05-19T08:01:47.253Z,26.80
2019-05-19T08:02:47.286Z,27.60
2019-05-19T08:03:47.261Z,26.60
2019-05-19T08:04:47.338Z,27.30
2019-05-19T08:05:47.266Z,26.70
2019-05-19T08:06:47.282Z,26.70
2019-05-19T08:07:47.306Z,26.70
2019-05-19T08:08:47.281Z,27.10
2019-05-19T08:09:47.287Z,26.40
2019-05-19T08:10:47.292Z,27.80
2019-05-19T08:11:47.299Z,24.70
2019-05-19T08:12:47.301Z,25.70
2019-05-19T08:13:47.320Z,26.60
2019-05-19T08:14:47.319Z,26.40
2019-05-19T08:15:47.314Z,25.70
2019-05-19T08:16:47.316Z,25.60
2019-05-19T08:17:47.318Z,26.60
2019-05-19T08:18:47.320Z,25.60
2019-05-19T08:19:47.324Z,24.60
2019-05-19T08:20:47.332Z,25.10
2019-05-19T08:21:47.341Z,24.80
2019-05-19T08:22:47.339Z,24.50
2019-05-19T08:23:59.845Z,24.70
2019-05-19T08:24:47.341Z,25.70
2019-05-19T08:25:47.346Z,25.60
2019-05-19T08:26:47.353Z,25.30
2019-05-19T08:27:47.358Z,25.30
2019-05-19T08:28:47.364Z,24.40
2019-05-19T08:29:47.383Z,25.30
2019-05-19T08:30:47.372Z,26.30
2019-05-19T08:31:47.372Z,25.90
2019-05-19T08:32:47.379Z,25.30
2019-05-19T08:33:47.394Z,25.20
2019-05-19T08:34:47.385Z,25.60
2019-05-19T08:35:47.388Z,24.60
2019-05-19T08:36:47.389Z,22.80
2019-05-19T08:37:47.393Z,24.00
2019-05-19T08:38:47.401Z,23.40
2019-05-19T08:39:47.408Z,22.40
2019-05-19T08:40:47.422Z,22.50
2019-05-19T08:41:47.419Z,21.70
2019-05-19T08:42:47.418Z,21.70
2019-05-19T08:43:47.425Z,19.60
2019-05-19T08:44:47.424Z,19.00
2019-05-19T08:45:47.430Z,18.90
2019-05-19T08:46:47.437Z,19.70
2019-05-19T08:47:47.443Z,18.70
2019-05-19T08:48:47.443Z,16.40
2019-05-19T08:49:47.450Z,17.00
2019-05-19T08:50:47.457Z,16.70
2019-05-19T08:51:47.462Z,15.90
2019-05-19T08:52:47.473Z,15.50
2019-05-19T08:53:47.483Z,15.60
2019-05-19T08:54:47.488Z,15.60
2019-05-19T08:55:47.493Z,15.80
2019-05-19T08:56:47.498Z,15.40
2019-05-19T08:57:47.504Z,15.10
2019-05-19T08:58:47.517Z,15.40
2019-05-19T08:59:47.521Z,14.80
2019-05-19T09:00:47.530Z,14.90
2019-05-19T09:01:47.539Z,15.00
2019-05-19T09:02:47.544Z,15.00
2019-05-19T09:03:47.552Z,14.90
2019-05-19T09:04:47.567Z,14.20
2019-05-19T09:05:48.042Z,13.80
2019-05-19T09:06:47.587Z,13.70
2019-05-19T09:07:47.601Z,13.80
2019-05-19T09:08:47.607Z,13.30
2019-05-19T09:09:47.672Z,13.40
2019-05-19T09:10:47.626Z,13.00
2019-05-19T09:11:48.061Z,14.00
2019-05-19T09:12:47.651Z,13.50
2019-05-19T09:13:47.663Z,13.60
2019-05-19T09:14:47.672Z,12.90
2019-05-19T09:15:47.686Z,13.00
2019-05-19T09:16:47.689Z,12.50
2019-05-19T09:17:47.706Z,13.60
2019-05-19T09:18:47.717Z,13.50
2019-05-19T09:19:47.724Z,14.00
2019-05-19T09:20:47.734Z,12.90
2019-05-19T09:21:47.742Z,12.90
2019-05-19T09:22:47.756Z,13.00
2019-05-19T09:23:47.768Z,12.80
2019-05-19T09:24:47.781Z,13.30
2019-05-19T09:25:47.792Z,12.70
2019-05-19T09:26:47.804Z,13.60
2019-05-19T09:27:47.811Z,13.40
2019-05-19T09:28:47.817Z,13.10
2019-05-19T09:29:47.827Z,12.90
2019-05-19T09:30:47.835Z,13.10
2019-05-19T09:31:47.843Z,13.40
2019-05-19T09:32:47.858Z,13.70
2019-05-19T09:33:47.869Z,13.20
2019-05-19T09:34:47.872Z,13.60
2019-05-19T09:35:47.883Z,13.20
2019-05-19T09:36:47.898Z,16.20
2019-05-19T09:37:47.906Z,14.00
2019-05-19T09:38:47.917Z,14.10
2019-05-19T09:39:47.924Z,13.70
2019-05-19T09:40:47.931Z,14.00
2019-05-19T09:41:47.944Z,14.50
2019-05-19T09:42:47.947Z,14.10
2019-05-19T09:43:47.958Z,14.10
2019-05-19T09:44:47.968Z,14.20
2019-05-19T09:45:47.975Z,15.10
2019-05-19T09:46:47.986Z,14.70
2019-05-19T09:47:47.996Z,15.60
2019-05-19T09:48:47.998Z,14.20
2019-05-19T09:49:48.007Z,16.30
2019-05-19T09:50:48.022Z,17.00
2019-05-19T09:51:48.025Z,16.30
2019-05-19T09:52:48.032Z,16.10
2019-05-19T09:53:48.038Z,17.20
2019-05-19T09:54:48.044Z,16.90
2019-05-19T09:55:48.051Z,17.20
2019-05-19T09:56:48.062Z,16.10
2019-05-19T09:57:48.071Z,17.00
2019-05-19T09:58:48.076Z,17.30
2019-05-19T09:59:48.089Z,16.30
2019-05-19T10:00:48.087Z,17.10
2019-05-19T10:01:48.096Z,16.90
2019-05-19T10:02:48.104Z,17.70
2019-05-19T10:03:48.110Z,17.20
2019-05-19T10:04:48.122Z,17.00
2019-05-19T10:05:48.132Z,16.70
2019-05-19T10:06:48.154Z,17.40
2019-05-19T10:07:48.139Z,17.20
2019-05-19T10:08:48.149Z,16.30
2019-05-19T10:09:48.158Z,15.60
2019-05-19T10:10:48.162Z,15.90
2019-05-19T10:11:48.166Z,15.70
2019-05-19T10:12:48.170Z,16.00
2019-05-19T10:13:48.176Z,15.10
2019-05-19T10:14:48.185Z,15.10
2019-05-19T10:15:48.189Z,15.50
2019-05-19T10:16:48.233Z,14.30
2019-05-19T10:17:48.205Z,14.80
2019-05-19T10:18:48.217Z,16.30
2019-05-19T10:19:48.223Z,15.10
2019-05-19T10:20:50.429Z,15.10
2019-05-19T10:21:48.228Z,16.10
2019-05-19T10:22:48.240Z,16.20
2019-05-19T10:23:48.247Z,16.30
2019-05-19T10:25:04.167Z,16.10
2019-05-19T10:25:48.256Z,16.30
2019-05-19T10:26:48.265Z,15.50
2019-05-19T10:27:48.265Z,15.60
2019-05-19T10:28:48.274Z,15.30
2019-05-19T10:29:48.281Z,15.80
2019-05-19T10:30:48.290Z,16.00
2019-05-19T10:31:48.294Z,15.50
2019-05-19T10:32:48.303Z,16.50
2019-05-19T10:33:48.392Z,15.10
2019-05-19T10:34:48.314Z,16.10
2019-05-19T10:35:48.323Z,15.90
2019-05-19T10:36:48.332Z,15.60
2019-05-19T10:37:48.350Z,15.30
2019-05-19T10:38:48.343Z,16.10
2019-05-19T10:39:48.349Z,15.30
2019-05-19T10:40:48.361Z,15.20
2019-05-19T10:41:48.367Z,15.30
2019-05-19T10:42:48.372Z,15.90
2019-05-19T10:43:48.379Z,15.30
2019-05-19T10:44:48.382Z,15.00
2019-05-19T10:45:48.399Z,14.80
2019-05-19T10:46:48.403Z,15.60
2019-05-19T10:47:48.415Z,15.10
2019-05-19T10:48:48.424Z,13.80
2019-05-19T10:49:48.431Z,13.80
2019-05-19T10:50:48.438Z,13.90
2019-05-19T10:51:48.448Z,14.00
2019-05-19T10:52:48.455Z,12.90
2019-05-19T10:53:48.462Z,13.90
2019-05-19T10:54:48.476Z,13.30
2019-05-19T10:55:48.483Z,14.40
2019-05-19T10:56:48.494Z,13.20
2019-05-19T10:57:48.500Z,13.90
2019-05-19T10:58:48.514Z,13.50
2019-05-19T10:59:48.523Z,13.80
2019-05-19T11:00:48.547Z,13.70
2019-05-19T11:01:48.555Z,12.60
2019-05-19T11:02:48.561Z,13.60
2019-05-19T11:03:48.573Z,13.20
2019-05-19T11:04:48.580Z,12.90
2019-05-19T11:05:48.593Z,13.40
2019-05-19T11:06:48.606Z,11.80
2019-05-19T11:07:48.620Z,12.60
2019-05-19T11:08:48.631Z,13.70
2019-05-19T11:09:48.643Z,12.80
2019-05-19T11:10:48.651Z,13.80
2019-05-19T11:11:48.665Z,13.10
2019-05-19T11:12:48.681Z,13.70
2019-05-19T11:13:48.694Z,12.80
2019-05-19T11:14:48.708Z,12.40
2019-05-19T11:15:48.722Z,12.80
2019-05-19T11:16:48.729Z,13.40
2019-05-19T11:17:48.762Z,13.20
2019-05-19T11:18:48.752Z,13.00
2019-05-19T11:19:48.765Z,12.60
2019-05-19T11:20:48.780Z,12.90
2019-05-19T11:21:48.793Z,12.10
2019-05-19T11:22:48.807Z,12.20
2019-05-19T11:23:48.823Z,12.90
2019-05-19T11:24:48.820Z,13.40
2019-05-19T11:25:51.336Z,14.60
2019-05-19T11:26:48.845Z,13.30
2019-05-19T11:27:48.855Z,11.70
2019-05-19T11:28:48.860Z,12.00
2019-05-19T11:29:48.873Z,13.30
2019-05-19T11:30:48.884Z,11.90
2019-05-19T11:31:48.893Z,12.80
2019-05-19T11:32:48.908Z,12.20
2019-05-19T11:33:48.917Z,12.50
2019-05-19T11:34:48.927Z,13.00
2019-05-19T11:35:48.932Z,12.70
2019-05-19T11:36:48.939Z,12.70
2019-05-19T11:37:48.947Z,12.70
2019-05-19T11:38:48.956Z,13.00
2019-05-19T11:39:48.963Z,12.60
2019-05-19T11:40:48.975Z,11.70
2019-05-19T11:41:48.985Z,11.40
2019-05-19T11:42:48.986Z,11.20
2019-05-19T11:43:48.994Z,11.20
2019-05-19T11:44:49.005Z,10.10
2019-05-19T11:45:49.027Z,10.30
2019-05-19T11:46:49.022Z,10.40
2019-05-19T11:47:49.030Z,10.90
2019-05-19T11:48:49.033Z,10.90
2019-05-19T11:49:49.051Z,11.10
2019-05-19T11:50:49.050Z,10.80
2019-05-19T11:51:49.057Z,11.30
2019-05-19T11:52:49.067Z,10.50
2019-05-19T11:53:49.072Z,10.20
2019-05-19T11:54:49.078Z,10.70
2019-05-19T11:55:49.085Z,10.80
2019-05-19T11:56:49.086Z,10.80
2019-05-19T11:57:49.094Z,9.60
2019-05-19T11:58:49.107Z,9.90
2019-05-19T11:59:49.110Z,8.80
2019-05-19T12:00:49.114Z,8.50
2019-05-19T12:01:49.120Z,8.50
2019-05-19T12:02:49.133Z,7.90
2019-05-19T12:03:49.135Z,9.80
2019-05-19T12:04:49.146Z,8.20
2019-05-19T12:05:49.152Z,8.40
2019-05-19T12:06:49.158Z,8.40
2019-05-19T12:07:49.171Z,8.70
2019-05-19T12:08:49.170Z,6.90
2019-05-19T12:09:49.175Z,7.20
2019-05-19T12:10:49.180Z,7.50
2019-05-19T12:11:49.184Z,7.80
2019-05-19T12:12:49.196Z,7.00
2019-05-19T12:13:49.201Z,7.80
2019-05-19T12:14:49.204Z,7.80
2019-05-19T12:15:49.210Z,7.80
2019-05-19T12:16:49.315Z,8.00
2019-05-19T12:17:49.227Z,8.60
2019-05-19T12:18:49.237Z,7.50
2019-05-19T12:19:49.242Z,7.20
2019-05-19T12:20:49.245Z,7.00
2019-05-19T12:21:49.253Z,6.40
2019-05-19T12:22:49.256Z,5.80
2019-05-19T12:23:49.261Z,5.50
2019-05-19T12:24:49.270Z,5.80
2019-05-19T12:25:49.277Z,5.50
2019-05-19T12:26:49.280Z,5.50
2019-05-19T12:27:49.286Z,5.20
2019-05-19T12:28:49.289Z,5.40
2019-05-19T12:29:49.292Z,5.10
2019-05-19T12:30:49.304Z,4.70
2019-05-19T12:31:49.307Z,4.60
2019-05-19T12:32:49.308Z,4.70
2019-05-19T12:33:51.827Z,5.10
2019-05-19T12:34:49.321Z,6.50
2019-05-19T12:35:49.340Z,5.10
2019-05-19T12:36:49.334Z,5.30
2019-05-19T12:37:49.340Z,4.80
2019-05-19T12:38:49.345Z,5.60
2019-05-19T12:39:49.350Z,4.90
2019-05-19T12:40:49.350Z,4.80
2019-05-19T12:41:49.355Z,5.10
2019-05-19T12:42:49.357Z,4.90
2019-05-19T12:43:49.360Z,5.50
2019-05-19T12:44:49.369Z,5.60
2019-05-19T12:45:49.390Z,5.80
2019-05-19T12:46:49.380Z,5.70
2019-05-19T12:47:49.379Z,6.00
2019-05-19T12:48:49.389Z,5.20
2019-05-19T12:49:49.393Z,5.30
2019-05-19T12:50:49.433Z,6.00
2019-05-19T12:51:49.405Z,5.60
2019-05-19T12:52:49.408Z,5.60
2019-05-19T12:53:49.412Z,5.80
2019-05-19T12:54:49.480Z,6.90